Aeroporto :
LOGIN :

Iscrizione | Disclaimer

   EN    FR    IT 

 










Sommario :    VFR   VFR Marginale   IFR   IFR Intensivo   IFR Molto Intensivo
Visibilità : 
Base nubi : 
>= 8 km
>= 3000ft
5 / 8 km
1000 / 3000 ft
1500m / 5 km
500 / 1000 ft
800 / 1500m
200 / 500 ft
< 800m
< 200 ft
Simboli :   Temporali  Nebbia  Neve Forte  Precipitazioni Forti  Vento > 20 kt
SIGMETs :   Varie  Temporali  Ghiacco  Turbolenza  Onda orograficha  Ceneri Vulcaniche







- Altitudine del aeroporto : 7 ft
- Codice IATA : XHE
- Carte del aeroporto


LFTH - Hyeres

ULTIMO METAR :
  • 222000Z AUTO 01003KT CAVOK 09/02 Q1026 NOSIG

METARs OBSOLETI :
  • 221930Z AUTO 36002KT CAVOK 10/04 Q1026 NOSIG
  • 221900Z AUTO 00000KT CAVOK 12/02 Q1026 NOSIG
  • 221830Z AUTO 00000KT CAVOK 13/04 Q1026 NOSIG
  • 221800Z AUTO 13002KT CAVOK 14/04 Q1026 NOSIG
  • 221730Z AUTO 08002KT CAVOK 16/03 Q1026 NOSIG
  • 221700Z AUTO VRB01KT CAVOK 17/03 Q1026 NOSIG

TAF TAF LFTH
Valido dal 22 a 15 ore il 23 a 15 ore UTC


221400Z 2215/2315 12008KT CAVOK
BECMG 2219/2221 VRB03KT
BECMG 2309/2311 23010G20KT
Nessun NOTAM noto per questo aeroporto.



MetMap, La meteo Aeronautica in un colpo d'occhio ! - Copyright ORBIFLY Dicembre 2007 - Disclaimer

ORBIFLY MET'MAP TEAM :

Programmazione e sviluppo : Alexandra Zaïnal
Concezione e sviluppo : Baudouin d'Aumeries
Co-Programmazione e sviluppo : Marc-Olivier Méhu
Supporto tecnico e logistico : Manuel Goepfert
Aiuto per la traduzione : Arnaldo La Scala

Contatto : metmap@orbifly.com




FONTI E CREDITI :

   NOAA